Main page
METAR-TAF:

METAR-TAF

Airports :

Vitoria Airport

Vitoria, Spain

latitude: 42-53N, longitude: 002-43W, elevation: 513 m

Current weather observation

The report was made 23 minutes ago, at 22:00 UTC
Wind 3 kt from the South, varying between South/Southeast and Southwest
Temperature 7°C
Humidity 70%
Pressure 1022 hPa
Visibility 10 km or more
no clouds below 1500 m and no cumulonimbus

METAR: LEVT 102200Z 19003KT 150V230 CAVOK 07/02 Q1022

Time: 23:23 (22:23 UTC)

Forecast

The report was made 5 hours and 23 minutes ago, at 17:00 UTC
Forecast valid from 10 at 18 UTC to 11 at 18 UTC
Wind 9 kt from the South/Southwest
Visibility 10 km or more
Scattered clouds at a height of 3000 ft
Becoming
from 11 at 06 UTC to 11 at 09 UTC
Wind 10 kt from the West/Northwest
Temporary
from 11 at 04 UTC to 11 at 12 UTC
Visibility: 3000 m
Broken clouds at a height of 1000 ft
rain

TAF: LEVT 101700Z 1018/1118 20009KT 9999 SCT030 TX10/1114Z TNM00/1105Z BECMG 1106/1109 30010KT TEMPO 1104/1112 3000 RA BKN010

Weather observations and forecasts of more than 4000 airports (METAR and TAF reports).

The available stations are represented by yellow and red dots on the map.

Hover mouse over dot to see the name of the station.

Then click to see weather observations and forecasts.

To change the map : click on the green buttons with a black cross to zoom in, on the green button with a dash to zoom out, or on the green arrows for adjacent maps.


METAR-TAF: